createdAt,value
2022-09-28T00:01:08.506Z,9.10
2022-09-28T00:03:37.150Z,8.80
2022-09-28T00:06:06.516Z,8.80
2022-09-28T00:08:35.747Z,9.07
2022-09-28T00:11:08.040Z,9.03
2022-09-28T00:13:36.464Z,8.80
2022-09-28T00:16:05.958Z,8.83
2022-09-28T00:18:34.779Z,8.27
2022-09-28T00:21:05.787Z,8.10
2022-09-28T00:23:34.442Z,7.77
2022-09-28T00:26:07.139Z,7.77
2022-09-28T00:28:35.118Z,7.90
2022-09-28T00:31:03.226Z,8.07
2022-09-28T00:33:31.243Z,8.73
2022-09-28T00:35:59.830Z,7.93
2022-09-28T00:38:29.350Z,8.87
2022-09-28T00:40:57.583Z,8.33
2022-09-28T00:43:27.111Z,8.10
2022-09-28T00:46:00.196Z,8.50
2022-09-28T00:48:30.564Z,8.40
2022-09-28T00:51:01.131Z,9.47
2022-09-28T00:53:34.773Z,8.93
2022-09-28T00:56:07.513Z,9.00
2022-09-28T00:58:40.587Z,9.63
2022-09-28T01:01:08.771Z,9.33
2022-09-28T01:03:38.710Z,8.43
2022-09-28T01:06:08.698Z,9.50
2022-09-28T01:08:37.150Z,9.77
2022-09-28T01:11:05.298Z,10.13
2022-09-28T01:13:34.486Z,9.23
2022-09-28T01:16:13.941Z,9.70
2022-09-28T01:18:51.755Z,9.50
2022-09-28T01:21:21.659Z,9.30
2022-09-28T01:24:14.017Z,9.30
2022-09-28T01:26:58.890Z,9.67
2022-09-28T01:29:39.002Z,9.67
2022-09-28T01:32:16.282Z,9.93
2022-09-28T01:34:49.564Z,9.33
2022-09-28T01:37:22.631Z,9.13
2022-09-28T01:39:52.855Z,9.07
2022-09-28T01:42:27.063Z,8.40
2022-09-28T01:44:59.513Z,9.03
2022-09-28T01:47:28.230Z,10.13
2022-09-28T01:50:01.646Z,9.50
2022-09-28T01:52:35.920Z,8.17
2022-09-28T01:55:09.717Z,10.10
2022-09-28T01:57:43.367Z,9.17
2022-09-28T02:00:14.278Z,9.97
2022-09-28T02:02:49.398Z,9.37
2022-09-28T02:05:22.006Z,9.63
2022-09-28T02:07:57.436Z,9.20
2022-09-28T02:10:29.418Z,9.43
2022-09-28T02:13:03.650Z,9.33
2022-09-28T02:15:38.361Z,9.37
2022-09-28T02:18:06.765Z,8.97
2022-09-28T02:20:37.452Z,9.23
2022-09-28T02:23:06.358Z,9.40
2022-09-28T02:25:39.386Z,9.53
2022-09-28T02:28:11.493Z,9.30
2022-09-28T02:30:41.301Z,9.80
2022-09-28T02:33:14.118Z,8.77
2022-09-28T02:35:43.423Z,9.00
2022-09-28T02:38:12.865Z,8.63
2022-09-28T02:40:42.251Z,9.40
2022-09-28T02:43:20.393Z,9.93
2022-09-28T02:45:56.992Z,8.63
2022-09-28T02:49:05.011Z,9.50
2022-09-28T02:51:47.357Z,9.50
2022-09-28T02:54:37.505Z,8.63
2022-09-28T02:57:14.604Z,9.50
2022-09-28T02:59:53.656Z,9.03
2022-09-28T03:02:29.892Z,9.30
2022-09-28T03:05:12.404Z,9.13
2022-09-28T03:07:46.041Z,10.17
2022-09-28T03:10:18.197Z,8.67
2022-09-28T03:12:48.977Z,8.83
2022-09-28T03:15:24.604Z,8.83
2022-09-28T03:17:52.752Z,9.17
2022-09-28T03:20:21.153Z,8.63
2022-09-28T03:23:12.411Z,9.00
2022-09-28T03:25:37.105Z,8.73
2022-09-28T03:28:05.120Z,9.00
2022-09-28T03:30:34.463Z,8.93
2022-09-28T03:33:03.178Z,8.57
2022-09-28T03:35:31.077Z,9.37
2022-09-28T03:37:59.140Z,9.30
2022-09-28T03:40:27.237Z,9.90
2022-09-28T03:42:55.247Z,9.17
2022-09-28T03:45:23.372Z,9.30
2022-09-28T03:47:52.651Z,8.47
2022-09-28T03:50:20.603Z,9.17
2022-09-28T03:52:48.560Z,7.77
2022-09-28T03:55:16.547Z,7.97
2022-09-28T03:57:44.588Z,9.03
2022-09-28T04:00:14.303Z,8.37
2022-09-28T04:02:42.228Z,8.20
2022-09-28T04:05:11.620Z,8.80
2022-09-28T04:07:39.565Z,7.70
2022-09-28T04:10:08.543Z,7.60
2022-09-28T04:12:36.515Z,7.67
2022-09-28T04:15:04.822Z,7.27
2022-09-28T04:17:36.461Z,7.60
2022-09-28T04:20:08.585Z,7.80
2022-09-28T04:22:38.346Z,7.93
2022-09-28T04:25:07.322Z,7.00
2022-09-28T04:27:52.878Z,6.97
2022-09-28T04:30:21.026Z,7.03
2022-09-28T04:32:49.364Z,6.63
2022-09-28T04:35:17.454Z,6.97
2022-09-28T04:37:46.871Z,6.70
2022-09-28T04:40:15.023Z,6.00
2022-09-28T04:42:43.150Z,6.20
2022-09-28T04:45:12.006Z,5.43
2022-09-28T04:47:39.943Z,6.03
2022-09-28T04:50:08.703Z,6.80
2022-09-28T04:52:38.018Z,6.97
2022-09-28T04:55:08.235Z,6.67
2022-09-28T04:57:36.566Z,5.97
2022-09-28T05:00:05.738Z,5.83
2022-09-28T05:02:33.737Z,6.07
2022-09-28T05:05:01.796Z,6.33
2022-09-28T05:07:31.215Z,5.77
2022-09-28T05:10:00.682Z,5.43
2022-09-28T05:12:30.082Z,8.33
2022-09-28T05:14:58.146Z,11.60
2022-09-28T05:17:26.125Z,7.97
2022-09-28T05:19:54.157Z,7.10
2022-09-28T05:22:22.137Z,7.43
2022-09-28T05:24:50.133Z,7.40
2022-09-28T05:27:18.201Z,6.53
2022-09-28T05:29:47.638Z,6.50
2022-09-28T05:32:16.844Z,6.17
2022-09-28T05:34:44.821Z,6.50
2022-09-28T05:37:12.725Z,6.20
2022-09-28T05:39:40.689Z,5.87
2022-09-28T05:42:08.876Z,6.30
2022-09-28T05:44:38.395Z,5.63
2022-09-28T05:47:07.825Z,6.33
2022-09-28T05:49:35.781Z,6.67
2022-09-28T05:52:03.917Z,6.97
2022-09-28T05:54:31.885Z,7.13
2022-09-28T05:56:59.981Z,8.57
2022-09-28T05:59:29.988Z,8.30
2022-09-28T06:01:57.938Z,8.50
2022-09-28T06:04:27.542Z,8.53
2022-09-28T06:06:55.581Z,7.93
2022-09-28T06:09:25.985Z,7.83
2022-09-28T06:11:54.542Z,8.57
2022-09-28T06:14:22.677Z,8.27
2022-09-28T06:16:50.963Z,8.13
2022-09-28T06:19:19.301Z,8.23
2022-09-28T06:21:48.632Z,8.87
2022-09-28T06:24:16.889Z,7.53
2022-09-28T06:26:44.929Z,7.97
2022-09-28T06:29:19.228Z,7.50
2022-09-28T06:31:48.030Z,8.07
2022-09-28T06:34:16.194Z,8.73
2022-09-28T06:36:44.127Z,8.10
2022-09-28T06:39:13.505Z,8.17
2022-09-28T06:41:42.133Z,8.53
2022-09-28T06:44:10.233Z,8.53
2022-09-28T06:46:39.356Z,8.63
2022-09-28T06:49:09.277Z,7.90
2022-09-28T06:51:37.711Z,8.33
2022-09-28T06:54:06.152Z,8.50
2022-09-28T06:56:35.524Z,8.23
2022-09-28T06:59:03.549Z,7.27
2022-09-28T07:01:31.799Z,8.10
2022-09-28T07:04:01.979Z,8.17
2022-09-28T07:06:31.524Z,7.90
2022-09-28T07:09:14.374Z,7.87
2022-09-28T07:11:50.192Z,7.97
2022-09-28T07:14:36.243Z,8.47
2022-09-28T07:17:13.811Z,6.90
2022-09-28T07:19:42.400Z,7.20
2022-09-28T07:22:18.519Z,7.37
2022-09-28T07:24:47.886Z,7.60
2022-09-28T07:27:17.525Z,7.50
2022-09-28T07:29:45.434Z,6.90
2022-09-28T07:32:13.393Z,7.20
2022-09-28T07:34:43.776Z,6.93
2022-09-28T07:37:13.287Z,7.87
2022-09-28T07:39:55.216Z,7.03
2022-09-28T07:42:24.909Z,7.20
2022-09-28T07:44:52.891Z,7.20
2022-09-28T07:47:29.644Z,6.70
2022-09-28T07:49:58.910Z,6.77
2022-09-28T07:52:28.762Z,6.70
2022-09-28T07:54:57.200Z,6.80
2022-09-28T07:57:26.494Z,6.53
2022-09-28T07:59:54.639Z,6.37
2022-09-28T08:02:23.132Z,6.73
2022-09-28T08:04:51.536Z,6.57
2022-09-28T08:07:23.719Z,6.03
2022-09-28T08:09:52.554Z,5.80
2022-09-28T08:12:21.405Z,5.70
2022-09-28T08:14:52.220Z,5.47
2022-09-28T08:17:20.213Z,5.90
2022-09-28T08:20:05.785Z,5.87
2022-09-28T08:22:34.313Z,5.67
2022-09-28T08:25:02.384Z,5.80
2022-09-28T08:27:30.340Z,5.87
2022-09-28T08:29:59.665Z,5.60
2022-09-28T08:32:29.705Z,6.10
2022-09-28T08:34:57.652Z,5.37
2022-09-28T08:37:25.622Z,5.70
2022-09-28T08:39:53.886Z,5.67
2022-09-28T08:42:35.850Z,6.17
2022-09-28T08:45:12.249Z,5.33
2022-09-28T08:48:09.758Z,6.17
2022-09-28T08:50:48.276Z,5.43
2022-09-28T08:53:35.420Z,6.40
2022-09-28T08:56:08.636Z,6.00
2022-09-28T08:58:41.859Z,7.60
2022-09-28T09:01:16.470Z,7.47
2022-09-28T09:03:45.570Z,6.77
2022-09-28T09:06:25.455Z,7.10
2022-09-28T09:09:04.315Z,6.63
2022-09-28T09:11:48.834Z,6.87
2022-09-28T09:14:34.215Z,7.27
2022-09-28T09:17:14.266Z,6.73
2022-09-28T09:19:51.474Z,8.63
2022-09-28T09:22:29.238Z,8.10
2022-09-28T09:25:05.939Z,7.07
2022-09-28T09:27:46.413Z,6.77
2022-09-28T09:30:19.733Z,7.27
2022-09-28T09:33:11.398Z,7.00
2022-09-28T09:35:59.401Z,7.67
2022-09-28T09:38:47.042Z,8.27
2022-09-28T09:41:26.233Z,8.30
2022-09-28T09:44:20.219Z,8.80
2022-09-28T09:46:52.719Z,8.30
2022-09-28T09:49:24.984Z,8.00
2022-09-28T09:51:59.977Z,8.00
2022-09-28T09:54:32.521Z,7.27
2022-09-28T09:57:06.946Z,6.50
2022-09-28T09:59:39.558Z,5.87
2022-09-28T10:02:18.980Z,5.60
2022-09-28T10:04:50.875Z,5.90
2022-09-28T10:07:24.331Z,5.60
2022-09-28T10:09:56.255Z,6.00
2022-09-28T10:12:25.510Z,6.40
2022-09-28T10:14:55.325Z,6.47
2022-09-28T10:17:27.304Z,6.20
2022-09-28T10:19:57.775Z,6.10
2022-09-28T10:22:28.383Z,5.57
2022-09-28T10:24:57.493Z,5.80
2022-09-28T10:27:28.949Z,5.60
2022-09-28T10:29:59.797Z,5.53
2022-09-28T10:32:37.100Z,5.50
2022-09-28T10:35:23.567Z,5.60
2022-09-28T10:37:55.561Z,5.00
2022-09-28T10:40:38.782Z,5.23
2022-09-28T10:43:18.856Z,4.60
2022-09-28T10:45:47.117Z,5.07
2022-09-28T10:48:20.251Z,4.90
2022-09-28T10:51:03.731Z,5.17
2022-09-28T10:53:31.914Z,5.20
2022-09-28T10:56:02.860Z,4.93
2022-09-28T10:58:39.320Z,5.27
2022-09-28T11:01:12.009Z,4.80
2022-09-28T11:03:51.056Z,5.37
2022-09-28T11:06:27.897Z,4.80
2022-09-28T11:08:58.578Z,4.87
2022-09-28T11:11:27.178Z,4.47
2022-09-28T11:14:00.461Z,4.57
2022-09-28T11:16:30.182Z,5.07
2022-09-28T11:18:59.054Z,4.80
2022-09-28T11:21:32.151Z,4.77
2022-09-28T11:24:08.293Z,5.20
2022-09-28T11:26:40.795Z,4.97
2022-09-28T11:29:21.359Z,4.67
2022-09-28T11:31:49.559Z,4.30
2022-09-28T11:34:31.495Z,5.10
2022-09-28T11:37:41.216Z,5.07
2022-09-28T11:40:21.335Z,5.10
2022-09-28T11:42:54.356Z,4.73
2022-09-28T11:45:38.398Z,5.00
2022-09-28T11:48:08.969Z,4.47
2022-09-28T11:50:47.731Z,4.53
2022-09-28T11:53:23.339Z,3.70
2022-09-28T11:55:56.794Z,3.90
2022-09-28T11:58:30.980Z,4.30
2022-09-28T12:01:03.796Z,4.37
2022-09-28T12:03:38.670Z,4.27
2022-09-28T12:06:13.409Z,3.50
2022-09-28T12:08:47.102Z,3.70
2022-09-28T12:11:18.767Z,3.50
2022-09-28T12:13:49.252Z,3.63
2022-09-28T12:16:53.189Z,4.60
2022-09-28T12:19:19.621Z,3.87
2022-09-28T12:21:52.362Z,4.37
2022-09-28T12:24:26.971Z,4.17
2022-09-28T12:26:59.212Z,4.43
2022-09-28T12:29:30.948Z,4.20
2022-09-28T12:32:07.074Z,3.97
2022-09-28T12:34:35.072Z,4.07
2022-09-28T12:37:14.816Z,4.07
2022-09-28T12:39:57.931Z,3.97
2022-09-28T12:42:47.176Z,3.60
2022-09-28T12:45:47.916Z,4.10
2022-09-28T12:48:45.933Z,4.10
2022-09-28T12:51:31.872Z,4.33
2022-09-28T12:54:07.851Z,4.37
2022-09-28T12:56:42.727Z,4.13
2022-09-28T12:59:22.108Z,3.80
2022-09-28T13:02:28.594Z,7.93
2022-09-28T13:05:13.280Z,13.07
2022-09-28T13:07:50.945Z,5.80
2022-09-28T13:10:32.594Z,9.63
2022-09-28T13:13:18.146Z,7.17
2022-09-28T13:15:53.141Z,8.47
2022-09-28T13:18:27.550Z,4.60
2022-09-28T13:21:14.911Z,3.80
2022-09-28T13:23:44.904Z,3.90
2022-09-28T13:26:20.231Z,2.93
2022-09-28T13:28:52.034Z,2.73
2022-09-28T13:31:22.353Z,2.63
2022-09-28T13:33:52.071Z,3.97
2022-09-28T13:36:36.432Z,4.10
2022-09-28T13:39:04.885Z,3.43
2022-09-28T13:41:34.195Z,3.20
2022-09-28T13:44:40.567Z,3.60
2022-09-28T13:47:21.223Z,3.00
2022-09-28T13:50:01.478Z,3.20
2022-09-28T13:52:45.004Z,3.10
2022-09-28T13:55:24.782Z,3.80
2022-09-28T13:57:57.798Z,3.40
2022-09-28T14:00:31.423Z,3.23
2022-09-28T14:03:05.127Z,9.93
2022-09-28T14:05:47.993Z,5.27
2022-09-28T14:08:29.713Z,3.70
2022-09-28T14:10:58.710Z,9.23
2022-09-28T14:14:01.749Z,5.93
2022-09-28T14:16:32.902Z,6.00
2022-09-28T14:19:04.593Z,4.13
2022-09-28T14:22:02.291Z,4.17
2022-09-28T14:24:55.973Z,4.30
2022-09-28T14:28:02.725Z,5.77
2022-09-28T14:30:47.809Z,4.80
2022-09-28T14:33:26.112Z,4.67
2022-09-28T14:35:57.496Z,6.80
2022-09-28T14:38:47.297Z,5.70
2022-09-28T14:41:31.343Z,6.13
2022-09-28T14:44:05.248Z,9.27
2022-09-28T14:46:43.659Z,10.37
2022-09-28T14:49:47.635Z,11.67
2022-09-28T14:52:37.955Z,6.47
2022-09-28T14:55:14.791Z,8.50
2022-09-28T14:57:43.628Z,5.97
2022-09-28T15:00:21.268Z,6.27
2022-09-28T15:02:52.572Z,7.27
2022-09-28T15:05:25.525Z,8.07
2022-09-28T15:07:55.121Z,8.50
2022-09-28T15:10:28.231Z,8.50
2022-09-28T15:12:57.651Z,7.93
2022-09-28T15:15:29.530Z,9.97
2022-09-28T15:18:14.288Z,7.70
2022-09-28T15:20:47.786Z,7.83
2022-09-28T15:23:37.341Z,7.80
2022-09-28T15:26:07.127Z,8.43
2022-09-28T15:28:36.288Z,6.70
2022-09-28T15:31:06.211Z,8.37
2022-09-28T15:33:53.350Z,6.87
2022-09-28T15:36:26.091Z,6.53
2022-09-28T15:38:58.883Z,6.53
2022-09-28T15:41:27.514Z,6.70
2022-09-28T15:44:29.938Z,6.97
2022-09-28T15:47:14.843Z,6.60
2022-09-28T15:49:47.582Z,6.40
2022-09-28T15:52:28.923Z,6.60
2022-09-28T15:54:57.289Z,6.50
2022-09-28T15:57:38.081Z,6.80
2022-09-28T16:00:22.985Z,6.50
2022-09-28T16:03:02.290Z,7.03
2022-09-28T16:05:37.524Z,6.90
2022-09-28T16:08:14.881Z,7.13
2022-09-28T16:10:54.968Z,5.30
2022-09-28T16:13:23.935Z,6.40
2022-09-28T16:15:58.132Z,4.03
2022-09-28T16:18:27.632Z,3.77
2022-09-28T16:20:57.197Z,4.60
2022-09-28T16:23:30.563Z,5.17
2022-09-28T16:26:02.551Z,7.00
2022-09-28T16:28:51.727Z,6.27
2022-09-28T16:31:43.204Z,11.60
2022-09-28T16:34:20.798Z,11.63
2022-09-28T16:36:50.334Z,8.87
2022-09-28T16:39:20.725Z,7.00
2022-09-28T16:41:52.641Z,9.83
2022-09-28T16:44:24.661Z,8.47
2022-09-28T16:46:55.734Z,9.50
2022-09-28T16:49:26.327Z,6.83
2022-09-28T16:51:54.710Z,7.80
2022-09-28T16:54:43.225Z,11.20
2022-09-28T16:57:13.542Z,17.77
2022-09-28T16:59:42.603Z,12.70
2022-09-28T17:05:11.157Z,51.63
2022-09-28T17:07:39.396Z,19.90
2022-09-28T17:10:16.985Z,37.20
2022-09-28T17:12:45.016Z,16.30
2022-09-28T17:15:15.720Z,11.60
2022-09-28T17:17:44.047Z,10.57
2022-09-28T17:20:22.010Z,14.00
2022-09-28T17:22:50.084Z,12.23
2022-09-28T17:25:19.579Z,10.40
2022-09-28T17:27:48.921Z,12.07
2022-09-28T17:30:20.237Z,7.57
2022-09-28T17:32:51.530Z,8.60
2022-09-28T17:35:25.262Z,8.93
2022-09-28T17:37:53.576Z,9.50
2022-09-28T17:40:25.684Z,7.40
2022-09-28T17:42:55.131Z,10.43
2022-09-28T17:45:24.223Z,13.20
2022-09-28T17:47:52.173Z,10.30
2022-09-28T17:50:23.603Z,8.23
2022-09-28T17:52:53.184Z,8.10
2022-09-28T17:55:24.557Z,8.60
2022-09-28T17:57:52.528Z,8.03
2022-09-28T18:00:20.819Z,16.07
2022-09-28T18:02:48.811Z,13.30
2022-09-28T18:05:16.863Z,9.47
2022-09-28T18:07:47.804Z,9.17
2022-09-28T18:10:19.558Z,11.00
2022-09-28T18:12:49.168Z,11.77
2022-09-28T18:15:18.392Z,10.97
2022-09-28T18:17:46.541Z,11.30
2022-09-28T18:20:15.333Z,12.10
2022-09-28T18:22:43.236Z,10.13
2022-09-28T18:25:11.823Z,9.93
2022-09-28T18:27:39.773Z,14.67
2022-09-28T18:30:10.107Z,13.87
2022-09-28T18:32:38.242Z,15.57
2022-09-28T18:35:08.418Z,13.00
2022-09-28T18:37:37.379Z,44.47
2022-09-28T18:40:05.954Z,22.10
2022-09-28T18:42:35.618Z,16.00
2022-09-28T18:45:03.934Z,17.17
2022-09-28T18:47:33.647Z,16.53
2022-09-28T18:50:01.542Z,14.70
2022-09-28T18:52:29.546Z,16.23
2022-09-28T18:54:57.448Z,12.87
2022-09-28T18:57:25.331Z,10.57
2022-09-28T18:59:53.291Z,10.83
2022-09-28T19:02:21.419Z,10.70
2022-09-28T19:04:50.886Z,9.27
2022-09-28T19:07:18.884Z,8.10
2022-09-28T19:09:46.832Z,13.30
2022-09-28T19:12:15.774Z,59.17
2022-09-28T19:14:43.788Z,28.53
2022-09-28T19:17:12.028Z,27.33
2022-09-28T19:19:42.690Z,33.97
2022-09-28T19:22:13.409Z,16.23
2022-09-28T19:24:41.340Z,17.33
2022-09-28T19:27:09.415Z,17.47
2022-09-28T19:29:37.373Z,19.27
2022-09-28T19:32:05.445Z,20.77
2022-09-28T19:34:33.396Z,16.00
2022-09-28T19:37:03.816Z,14.20
2022-09-28T19:39:33.184Z,13.87
2022-09-28T19:42:01.293Z,20.50
2022-09-28T19:44:31.233Z,12.43
2022-09-28T19:47:00.623Z,12.20
2022-09-28T19:49:33.054Z,14.63
2022-09-28T19:52:12.550Z,11.17
2022-09-28T19:54:44.856Z,12.57
2022-09-28T19:57:15.682Z,10.23
2022-09-28T19:59:44.096Z,10.70
2022-09-28T20:02:13.307Z,9.73
2022-09-28T20:04:41.359Z,9.00
2022-09-28T20:07:09.451Z,8.67
2022-09-28T20:09:37.384Z,10.30
2022-09-28T20:12:06.813Z,12.93
2022-09-28T20:14:39.524Z,13.57
2022-09-28T20:17:08.401Z,12.00
2022-09-28T20:19:36.454Z,11.87
2022-09-28T20:22:05.057Z,11.53
2022-09-28T20:24:33.545Z,11.67
2022-09-28T20:27:02.527Z,11.93
2022-09-28T20:29:33.522Z,11.40
2022-09-28T20:32:02.222Z,11.53
2022-09-28T20:34:30.345Z,11.90
2022-09-28T20:36:58.299Z,11.43
2022-09-28T20:39:26.360Z,11.70
2022-09-28T20:41:55.034Z,12.10
2022-09-28T20:44:22.974Z,11.37
2022-09-28T20:46:52.748Z,11.93
2022-09-28T20:49:20.699Z,10.00
2022-09-28T20:51:48.688Z,11.37
2022-09-28T20:54:16.855Z,10.20
2022-09-28T20:56:44.851Z,11.60
2022-09-28T20:59:13.613Z,10.50
2022-09-28T21:01:41.943Z,11.23
2022-09-28T21:04:12.526Z,10.33
2022-09-28T21:06:41.910Z,11.23
2022-09-28T21:09:11.529Z,10.83
2022-09-28T21:11:40.288Z,10.30
2022-09-28T21:14:09.648Z,9.87
2022-09-28T21:16:37.662Z,10.20
2022-09-28T21:19:05.739Z,9.80
2022-09-28T21:21:35.057Z,9.63
2022-09-28T21:24:03.295Z,8.77
2022-09-28T21:26:32.694Z,9.57
2022-09-28T21:29:02.276Z,9.27
2022-09-28T21:31:32.718Z,9.43
2022-09-28T21:34:00.817Z,8.67
2022-09-28T21:36:28.814Z,8.60
2022-09-28T21:38:58.348Z,9.17
2022-09-28T21:41:26.838Z,9.30
2022-09-28T21:43:54.845Z,8.97
2022-09-28T21:46:23.145Z,8.47
2022-09-28T21:48:53.709Z,9.60
2022-09-28T21:51:21.740Z,8.87
2022-09-28T21:53:50.219Z,9.13
2022-09-28T21:56:19.585Z,9.13
2022-09-28T21:58:47.944Z,9.67
2022-09-28T22:01:18.280Z,9.87
2022-09-28T22:03:47.932Z,9.30
2022-09-28T22:06:17.072Z,8.47
2022-09-28T22:08:45.480Z,8.00
2022-09-28T22:11:15.542Z,7.07
2022-09-28T22:13:46.626Z,7.10
2022-09-28T22:16:16.254Z,8.07
2022-09-28T22:18:44.602Z,7.13
2022-09-28T22:21:15.112Z,6.90
2022-09-28T22:23:43.201Z,6.83
2022-09-28T22:26:13.848Z,6.63
2022-09-28T22:28:49.497Z,7.63
2022-09-28T22:31:19.268Z,6.43
2022-09-28T22:33:47.321Z,6.60
2022-09-28T22:36:17.097Z,6.80
2022-09-28T22:38:45.750Z,6.30
2022-09-28T22:41:15.885Z,6.67
2022-09-28T22:43:44.379Z,7.17
2022-09-28T22:46:15.525Z,6.90
2022-09-28T22:48:47.030Z,6.97
2022-09-28T22:51:15.159Z,7.33
2022-09-28T22:53:43.181Z,7.53
2022-09-28T22:56:17.537Z,8.90
2022-09-28T22:58:47.168Z,7.97
2022-09-28T23:01:18.579Z,7.67
2022-09-28T23:03:47.149Z,8.50
2022-09-28T23:06:17.638Z,8.20
2022-09-28T23:08:47.287Z,8.30
2022-09-28T23:11:15.879Z,7.70
2022-09-28T23:13:44.040Z,8.37
2022-09-28T23:16:14.851Z,8.37
2022-09-28T23:18:44.411Z,8.17
2022-09-28T23:21:15.262Z,7.53
2022-09-28T23:23:43.631Z,7.90
2022-09-28T23:26:12.695Z,7.83
2022-09-28T23:28:40.650Z,7.27
2022-09-28T23:31:10.149Z,7.77
2022-09-28T23:33:38.185Z,7.33
2022-09-28T23:36:08.693Z,7.87
2022-09-28T23:38:36.815Z,7.53
2022-09-28T23:41:04.850Z,7.03
2022-09-28T23:43:32.772Z,7.80
2022-09-28T23:46:00.884Z,8.10
2022-09-28T23:48:28.875Z,7.23
2022-09-28T23:50:56.859Z,7.80
2022-09-28T23:53:26.346Z,7.10
2022-09-28T23:55:54.896Z,7.63
2022-09-28T23:58:22.914Z,7.77
